This is the latest recevied weather packets stored in our database for station/object W1HS. If no packets are shown the sender has not sent any weather packets the latest 1 day(s).
| Time | Temp. | Humidity | Pressure | Rain* | Wind** | Luminosity | Snow |
|---|---|---|---|---|---|---|---|
| 1777990339 | 19.44° C | 55% | 988.7 hPa | 0 mm | 3.58 m/s, 225° | 738 W/m² | - |
| 1777989739 | 18.89° C | 56% | 988.8 hPa | 0 mm | 3.13 m/s, 225° | 664 W/m² | - |
| 1777989139 | 18.33° C | 57% | 989 hPa | 0 mm | 1.79 m/s, 225° | 590 W/m² | - |
| 1777988539 | 17.78° C | 58% | 988.8 hPa | 0 mm | 1.79 m/s, 225° | 517 W/m² | - |
| 1777987940 | 17.22° C | 60% | 988.8 hPa | 0 mm | 3.13 m/s, 225° | 534 W/m² | - |
| 1777987341 | 16.11° C | 63% | 988.9 hPa | 0 mm | 2.24 m/s, 248° | 565 W/m² | - |
| 1777986806 | 15.56° C | 64% | 988.8 hPa | 0 mm | 2.68 m/s, 180° | 548 W/m² | - |
| 1777986499 | 15° C | 65% | 989 hPa | 0 mm | 1.79 m/s, 203° | 529 W/m² | - |
| 1777985899 | 15° C | 66% | 988.8 hPa | 0 mm | 0.89 m/s, 180° | 501 W/m² | - |
| 1777985299 | 14.44° C | 67% | 988.6 hPa | 0 mm | 3.13 m/s, 225° | 464 W/m² | - |
| 1777984701 | 13.33° C | 69% | 988.6 hPa | 0 mm | 1.79 m/s, 225° | 445 W/m² | - |
| 1777984099 | 13.33° C | 70% | 988.5 hPa | 0 mm | 2.24 m/s, 180° | 163 W/m² | - |
| 1777983502 | 12.78° C | 72% | 988.6 hPa | 0 mm | 1.34 m/s, 225° | 97 W/m² | - |
| 1777982901 | 13.33° C | 70% | 988.4 hPa | 0 mm | 1.79 m/s, 225° | 60 W/m² | - |
| 1777982299 | 13.33° C | 68% | 988.3 hPa | 0 mm | 0.89 m/s, 203° | 105 W/m² | - |
| 1777981700 | 13.33° C | 69% | 989 hPa | 0 mm | 1.79 m/s, 225° | 149 W/m² | - |
| 1777981099 | 12.22° C | 71% | 989.1 hPa | 0 mm | 0.89 m/s, 225° | 165 W/m² | - |
| 1777980499 | 12.22° C | 72% | 989 hPa | 0 mm | 2.68 m/s, 225° | 53 W/m² | - |
| 1777979901 | 11.67° C | 72% | 988.8 hPa | 0 mm | 4.02 m/s, 248° | 42 W/m² | - |
| 1777979299 | 11.67° C | 71% | 988.7 hPa | 0 mm | 1.34 m/s, 248° | 38 W/m² | - |
| 1777978706 | 11.67° C | 71% | 988.6 hPa | 0 mm | 1.79 m/s, 225° | 32 W/m² | - |
| 1777978099 | 11.67° C | 70% | 988.3 hPa | 0 mm | 2.68 m/s, 225° | 32 W/m² | - |
| 1777977501 | 11.67° C | 70% | 988.3 hPa | 0 mm | 3.13 m/s, 203° | 28 W/m² | - |
| 1777976901 | 11.67° C | 70% | 988.2 hPa | 0 mm | 1.34 m/s, 225° | 28 W/m² | - |
| 1777976299 | 11.67° C | 70% | 988.1 hPa | 0 mm | 1.34 m/s, 203° | 28 W/m² | - |
* Rain latest hour (hover to see other rain measurements)
** Current wind speed in m/s (hover to see current wind gust speed)